sensor_id;sensor_type;location;lat;lon;timestamp;P1;durP1;ratioP1;P2;durP2;ratioP2
1024;SDS011;501;48.214;11.350;2023-04-24T00:01:51;0.83;;;0.70;;
1024;SDS011;501;48.214;11.350;2023-04-24T00:04:17;0.90;;;0.90;;
1024;SDS011;501;48.214;11.350;2023-04-24T00:06:43;1.50;;;1.03;;
1024;SDS011;501;48.214;11.350;2023-04-24T00:09:09;0.90;;;0.90;;
1024;SDS011;501;48.214;11.350;2023-04-24T00:11:35;1.23;;;0.90;;
1024;SDS011;501;48.214;11.350;2023-04-24T00:14:01;0.93;;;0.70;;
1024;SDS011;501;48.214;11.350;2023-04-24T00:16:27;1.07;;;0.97;;
1024;SDS011;501;48.214;11.350;2023-04-24T00:18:53;2.13;;;0.83;;
1024;SDS011;501;48.214;11.350;2023-04-24T00:21:19;0.70;;;0.70;;
1024;SDS011;501;48.214;11.350;2023-04-24T00:23:45;0.70;;;0.70;;
1024;SDS011;501;48.214;11.350;2023-04-24T00:26:11;1.60;;;1.00;;
1024;SDS011;501;48.214;11.350;2023-04-24T00:28:36;1.40;;;0.93;;
1024;SDS011;501;48.214;11.350;2023-04-24T00:31:02;1.53;;;0.60;;
1024;SDS011;501;48.214;11.350;2023-04-24T00:33:28;2.70;;;0.70;;
1024;SDS011;501;48.214;11.350;2023-04-24T00:35:53;0.70;;;0.70;;
1024;SDS011;501;48.214;11.350;2023-04-24T00:38:19;2.10;;;0.60;;
1024;SDS011;501;48.214;11.350;2023-04-24T00:40:45;0.93;;;0.93;;
1024;SDS011;501;48.214;11.350;2023-04-24T00:43:10;0.60;;;0.60;;
1024;SDS011;501;48.214;11.350;2023-04-24T00:45:36;0.80;;;0.63;;
1024;SDS011;501;48.214;11.350;2023-04-24T00:48:02;0.77;;;0.77;;
1024;SDS011;501;48.214;11.350;2023-04-24T00:50:28;1.10;;;0.90;;
1024;SDS011;501;48.214;11.350;2023-04-24T00:52:55;1.70;;;0.90;;
1024;SDS011;501;48.214;11.350;2023-04-24T00:55:21;0.60;;;0.60;;
1024;SDS011;501;48.214;11.350;2023-04-24T00:57:46;0.60;;;0.50;;
1024;SDS011;501;48.214;11.350;2023-04-24T01:00:13;1.63;;;0.83;;
1024;SDS011;501;48.214;11.350;2023-04-24T01:02:40;0.87;;;0.80;;
1024;SDS011;501;48.214;11.350;2023-04-24T01:05:16;1.00;;;0.80;;
1024;SDS011;501;48.214;11.350;2023-04-24T01:07:43;1.80;;;0.77;;
1024;SDS011;501;48.214;11.350;2023-04-24T01:10:11;0.63;;;0.60;;
1024;SDS011;501;48.214;11.350;2023-04-24T01:12:37;0.40;;;0.40;;
1024;SDS011;501;48.214;11.350;2023-04-24T01:15:04;0.60;;;0.57;;
1024;SDS011;501;48.214;11.350;2023-04-24T01:17:31;0.63;;;0.50;;
1024;SDS011;501;48.214;11.350;2023-04-24T01:19:57;1.10;;;0.80;;
1024;SDS011;501;48.214;11.350;2023-04-24T01:22:24;0.63;;;0.63;;
1024;SDS011;501;48.214;11.350;2023-04-24T01:24:51;1.07;;;0.43;;
1024;SDS011;501;48.214;11.350;2023-04-24T01:27:18;1.20;;;0.87;;
1024;SDS011;501;48.214;11.350;2023-04-24T01:29:45;0.87;;;0.60;;
1024;SDS011;501;48.214;11.350;2023-04-24T01:32:12;0.63;;;0.53;;
1024;SDS011;501;48.214;11.350;2023-04-24T01:34:38;0.60;;;0.60;;
1024;SDS011;501;48.214;11.350;2023-04-24T01:37:05;0.80;;;0.60;;
1024;SDS011;501;48.214;11.350;2023-04-24T01:39:31;1.10;;;0.80;;
1024;SDS011;501;48.214;11.350;2023-04-24T01:41:58;0.93;;;0.67;;
1024;SDS011;501;48.214;11.350;2023-04-24T01:44:24;1.40;;;0.67;;
1024;SDS011;501;48.214;11.350;2023-04-24T01:46:51;0.53;;;0.43;;
1024;SDS011;501;48.214;11.350;2023-04-24T01:49:18;1.97;;;0.80;;
1024;SDS011;501;48.214;11.350;2023-04-24T01:51:44;0.70;;;0.50;;
1024;SDS011;501;48.214;11.350;2023-04-24T01:54:10;1.47;;;0.80;;
1024;SDS011;501;48.214;11.350;2023-04-24T01:56:36;0.50;;;0.50;;
1024;SDS011;501;48.214;11.350;2023-04-24T01:59:09;0.90;;;0.50;;
1024;SDS011;501;48.214;11.350;2023-04-24T02:01:36;1.00;;;0.70;;
1024;SDS011;501;48.214;11.350;2023-04-24T02:04:03;1.53;;;0.60;;
1024;SDS011;501;48.214;11.350;2023-04-24T02:06:29;0.70;;;0.50;;
1024;SDS011;501;48.214;11.350;2023-04-24T02:08:57;1.47;;;0.80;;
1024;SDS011;501;48.214;11.350;2023-04-24T02:11:23;0.70;;;0.70;;
1024;SDS011;501;48.214;11.350;2023-04-24T02:13:49;0.80;;;0.63;;
1024;SDS011;501;48.214;11.350;2023-04-24T02:16:16;0.50;;;0.50;;
1024;SDS011;501;48.214;11.350;2023-04-24T02:18:42;1.60;;;0.60;;
1024;SDS011;501;48.214;11.350;2023-04-24T02:21:07;0.57;;;0.50;;
1024;SDS011;501;48.214;11.350;2023-04-24T02:23:33;0.63;;;0.60;;
1024;SDS011;501;48.214;11.350;2023-04-24T02:25:58;0.60;;;0.60;;
1024;SDS011;501;48.214;11.350;2023-04-24T02:28:24;1.70;;;0.57;;
1024;SDS011;501;48.214;11.350;2023-04-24T02:30:50;0.30;;;0.30;;
1024;SDS011;501;48.214;11.350;2023-04-24T02:33:16;0.70;;;0.60;;
1024;SDS011;501;48.214;11.350;2023-04-24T02:35:41;0.50;;;0.50;;
1024;SDS011;501;48.214;11.350;2023-04-24T02:38:07;0.70;;;0.70;;
1024;SDS011;501;48.214;11.350;2023-04-24T02:40:32;0.60;;;0.60;;
1024;SDS011;501;48.214;11.350;2023-04-24T02:42:58;0.87;;;0.60;;
1024;SDS011;501;48.214;11.350;2023-04-24T02:45:24;0.40;;;0.40;;
1024;SDS011;501;48.214;11.350;2023-04-24T02:47:49;0.70;;;0.50;;
1024;SDS011;501;48.214;11.350;2023-04-24T02:50:15;2.10;;;0.80;;
1024;SDS011;501;48.214;11.350;2023-04-24T02:52:41;1.23;;;0.73;;
1024;SDS011;501;48.214;11.350;2023-04-24T02:55:06;2.10;;;0.50;;
1024;SDS011;501;48.214;11.350;2023-04-24T02:57:33;0.60;;;0.60;;
1024;SDS011;501;48.214;11.350;2023-04-24T02:59:58;1.30;;;0.60;;
1024;SDS011;501;48.214;11.350;2023-04-24T03:02:24;1.07;;;0.70;;
1024;SDS011;501;48.214;11.350;2023-04-24T03:04:50;0.70;;;0.60;;
1024;SDS011;501;48.214;11.350;2023-04-24T03:07:16;1.50;;;0.67;;
1024;SDS011;501;48.214;11.350;2023-04-24T03:09:41;1.63;;;0.70;;
1024;SDS011;501;48.214;11.350;2023-04-24T03:12:07;0.60;;;0.60;;
1024;SDS011;501;48.214;11.350;2023-04-24T03:14:33;2.10;;;0.67;;
1024;SDS011;501;48.214;11.350;2023-04-24T03:16:58;1.13;;;0.70;;
1024;SDS011;501;48.214;11.350;2023-04-24T03:19:24;1.00;;;0.60;;
1024;SDS011;501;48.214;11.350;2023-04-24T03:21:50;1.97;;;0.60;;
1024;SDS011;501;48.214;11.350;2023-04-24T03:24:15;2.70;;;1.07;;
1024;SDS011;501;48.214;11.350;2023-04-24T03:26:41;1.13;;;0.87;;
1024;SDS011;501;48.214;11.350;2023-04-24T03:29:07;0.80;;;0.40;;
1024;SDS011;501;48.214;11.350;2023-04-24T03:31:32;0.60;;;0.60;;
1024;SDS011;501;48.214;11.350;2023-04-24T03:33:58;1.00;;;0.83;;
1024;SDS011;501;48.214;11.350;2023-04-24T03:36:23;0.90;;;0.63;;
1024;SDS011;501;48.214;11.350;2023-04-24T03:38:50;1.10;;;0.90;;
1024;SDS011;501;48.214;11.350;2023-04-24T03:41:16;0.73;;;0.73;;
1024;SDS011;501;48.214;11.350;2023-04-24T03:43:42;1.00;;;0.90;;
1024;SDS011;501;48.214;11.350;2023-04-24T03:46:07;0.70;;;0.70;;
1024;SDS011;501;48.214;11.350;2023-04-24T03:48:34;0.70;;;0.50;;
1024;SDS011;501;48.214;11.350;2023-04-24T03:51:00;1.00;;;0.90;;
1024;SDS011;501;48.214;11.350;2023-04-24T03:53:25;1.13;;;0.50;;
1024;SDS011;501;48.214;11.350;2023-04-24T03:55:52;0.93;;;0.73;;
1024;SDS011;501;48.214;11.350;2023-04-24T03:58:18;0.87;;;0.77;;
1024;SDS011;501;48.214;11.350;2023-04-24T04:00:44;2.83;;;0.60;;
1024;SDS011;501;48.214;11.350;2023-04-24T04:03:11;0.97;;;0.50;;
1024;SDS011;501;48.214;11.350;2023-04-24T04:05:38;0.60;;;0.53;;
1024;SDS011;501;48.214;11.350;2023-04-24T04:08:03;1.07;;;0.93;;
1024;SDS011;501;48.214;11.350;2023-04-24T04:10:29;0.70;;;0.70;;
1024;SDS011;501;48.214;11.350;2023-04-24T04:12:54;0.60;;;0.60;;
1024;SDS011;501;48.214;11.350;2023-04-24T04:15:20;2.40;;;0.63;;
1024;SDS011;501;48.214;11.350;2023-04-24T04:17:46;2.07;;;0.80;;
1024;SDS011;501;48.214;11.350;2023-04-24T04:20:12;0.67;;;0.60;;
1024;SDS011;501;48.214;11.350;2023-04-24T04:22:38;0.60;;;0.60;;
1024;SDS011;501;48.214;11.350;2023-04-24T04:25:04;1.30;;;0.70;;
1024;SDS011;501;48.214;11.350;2023-04-24T04:27:30;0.60;;;0.60;;
1024;SDS011;501;48.214;11.350;2023-04-24T04:30:00;2.53;;;0.63;;
1024;SDS011;501;48.214;11.350;2023-04-24T04:32:29;0.90;;;0.70;;
1024;SDS011;501;48.214;11.350;2023-04-24T04:34:58;0.60;;;0.50;;
1024;SDS011;501;48.214;11.350;2023-04-24T04:37:31;0.77;;;0.77;;
1024;SDS011;501;48.214;11.350;2023-04-24T04:39:58;1.17;;;0.70;;
1024;SDS011;501;48.214;11.350;2023-04-24T04:42:24;0.90;;;0.53;;
1024;SDS011;501;48.214;11.350;2023-04-24T04:44:51;0.73;;;0.63;;
1024;SDS011;501;48.214;11.350;2023-04-24T04:47:17;1.67;;;0.90;;
1024;SDS011;501;48.214;11.350;2023-04-24T04:49:47;0.70;;;0.60;;
1024;SDS011;501;48.214;11.350;2023-04-24T04:52:13;0.73;;;0.73;;
1024;SDS011;501;48.214;11.350;2023-04-24T04:54:38;0.90;;;0.70;;
1024;SDS011;501;48.214;11.350;2023-04-24T04:57:04;0.97;;;0.83;;
1024;SDS011;501;48.214;11.350;2023-04-24T04:59:30;1.23;;;1.03;;
1024;SDS011;501;48.214;11.350;2023-04-24T05:01:56;0.70;;;0.70;;
1024;SDS011;501;48.214;11.350;2023-04-24T05:04:22;0.53;;;0.50;;
1024;SDS011;501;48.214;11.350;2023-04-24T05:06:47;0.97;;;0.70;;
1024;SDS011;501;48.214;11.350;2023-04-24T05:09:13;1.47;;;0.90;;
1024;SDS011;501;48.214;11.350;2023-04-24T05:11:39;0.60;;;0.60;;
1024;SDS011;501;48.214;11.350;2023-04-24T05:14:04;1.30;;;0.60;;
1024;SDS011;501;48.214;11.350;2023-04-24T05:16:30;1.37;;;0.67;;
1024;SDS011;501;48.214;11.350;2023-04-24T05:18:56;0.60;;;0.50;;
1024;SDS011;501;48.214;11.350;2023-04-24T05:21:21;1.43;;;0.90;;
1024;SDS011;501;48.214;11.350;2023-04-24T05:23:47;1.17;;;0.40;;
1024;SDS011;501;48.214;11.350;2023-04-24T05:26:13;0.80;;;0.53;;
1024;SDS011;501;48.214;11.350;2023-04-24T05:28:39;0.60;;;0.60;;
1024;SDS011;501;48.214;11.350;2023-04-24T05:31:05;2.20;;;0.60;;
1024;SDS011;501;48.214;11.350;2023-04-24T05:33:31;0.70;;;0.70;;
1024;SDS011;501;48.214;11.350;2023-04-24T05:35:57;0.40;;;0.30;;
1024;SDS011;501;48.214;11.350;2023-04-24T05:38:22;0.60;;;0.40;;
1024;SDS011;501;48.214;11.350;2023-04-24T05:40:48;1.03;;;0.40;;
1024;SDS011;501;48.214;11.350;2023-04-24T05:43:14;1.00;;;0.73;;
1024;SDS011;501;48.214;11.350;2023-04-24T05:45:39;0.70;;;0.70;;
1024;SDS011;501;48.214;11.350;2023-04-24T05:48:05;0.70;;;0.63;;
1024;SDS011;501;48.214;11.350;2023-04-24T05:50:31;1.83;;;0.70;;
1024;SDS011;501;48.214;11.350;2023-04-24T05:52:56;0.53;;;0.50;;
1024;SDS011;501;48.214;11.350;2023-04-24T05:55:26;0.60;;;0.60;;
1024;SDS011;501;48.214;11.350;2023-04-24T05:57:52;1.87;;;0.73;;
1024;SDS011;501;48.214;11.350;2023-04-24T06:00:18;0.60;;;0.60;;
1024;SDS011;501;48.214;11.350;2023-04-24T06:02:45;0.57;;;0.50;;
1024;SDS011;501;48.214;11.350;2023-04-24T06:05:11;0.70;;;0.57;;
1024;SDS011;501;48.214;11.350;2023-04-24T06:07:37;0.63;;;0.63;;
1024;SDS011;501;48.214;11.350;2023-04-24T06:10:02;1.17;;;0.50;;
1024;SDS011;501;48.214;11.350;2023-04-24T06:12:28;0.90;;;0.33;;
1024;SDS011;501;48.214;11.350;2023-04-24T06:14:54;1.90;;;0.43;;
1024;SDS011;501;48.214;11.350;2023-04-24T06:17:23;1.20;;;0.83;;
1024;SDS011;501;48.214;11.350;2023-04-24T06:19:48;1.80;;;0.70;;
1024;SDS011;501;48.214;11.350;2023-04-24T06:22:14;0.63;;;0.63;;
1024;SDS011;501;48.214;11.350;2023-04-24T06:24:40;0.60;;;0.50;;
1024;SDS011;501;48.214;11.350;2023-04-24T06:27:06;0.47;;;0.47;;
1024;SDS011;501;48.214;11.350;2023-04-24T06:29:32;0.70;;;0.50;;
1024;SDS011;501;48.214;11.350;2023-04-24T06:31:58;0.77;;;0.40;;
1024;SDS011;501;48.214;11.350;2023-04-24T06:34:24;2.13;;;0.70;;
1024;SDS011;501;48.214;11.350;2023-04-24T06:36:49;1.00;;;0.50;;
1024;SDS011;501;48.214;11.350;2023-04-24T06:39:15;0.50;;;0.47;;
1024;SDS011;501;48.214;11.350;2023-04-24T06:41:41;0.43;;;0.40;;
1024;SDS011;501;48.214;11.350;2023-04-24T06:44:06;2.87;;;0.60;;
1024;SDS011;501;48.214;11.350;2023-04-24T06:46:32;0.50;;;0.40;;
1024;SDS011;501;48.214;11.350;2023-04-24T06:48:58;1.50;;;0.50;;
1024;SDS011;501;48.214;11.350;2023-04-24T06:51:24;0.67;;;0.67;;
1024;SDS011;501;48.214;11.350;2023-04-24T06:53:51;0.50;;;0.30;;
1024;SDS011;501;48.214;11.350;2023-04-24T06:56:17;0.40;;;0.40;;
1024;SDS011;501;48.214;11.350;2023-04-24T06:58:43;0.90;;;0.90;;
1024;SDS011;501;48.214;11.350;2023-04-24T07:01:10;0.40;;;0.30;;
1024;SDS011;501;48.214;11.350;2023-04-24T07:03:36;0.60;;;0.43;;
1024;SDS011;501;48.214;11.350;2023-04-24T07:06:01;0.60;;;0.50;;
1024;SDS011;501;48.214;11.350;2023-04-24T07:08:28;0.50;;;0.43;;
1024;SDS011;501;48.214;11.350;2023-04-24T07:10:55;0.43;;;0.43;;
1024;SDS011;501;48.214;11.350;2023-04-24T07:13:22;1.03;;;0.70;;
1024;SDS011;501;48.214;11.350;2023-04-24T07:15:47;0.70;;;0.30;;
1024;SDS011;501;48.214;11.350;2023-04-24T07:18:18;1.53;;;0.67;;
1024;SDS011;501;48.214;11.350;2023-04-24T07:20:45;1.37;;;0.50;;
1024;SDS011;501;48.214;11.350;2023-04-24T07:23:10;0.60;;;0.40;;
1024;SDS011;501;48.214;11.350;2023-04-24T07:25:36;1.63;;;0.43;;
1024;SDS011;501;48.214;11.350;2023-04-24T07:28:01;0.50;;;0.50;;
1024;SDS011;501;48.214;11.350;2023-04-24T07:30:28;0.40;;;0.40;;
1024;SDS011;501;48.214;11.350;2023-04-24T07:32:54;0.90;;;0.63;;
1024;SDS011;501;48.214;11.350;2023-04-24T07:35:20;2.07;;;0.50;;
1024;SDS011;501;48.214;11.350;2023-04-24T07:37:46;0.50;;;0.43;;
1024;SDS011;501;48.214;11.350;2023-04-24T07:40:14;0.77;;;0.63;;
1024;SDS011;501;48.214;11.350;2023-04-24T07:42:40;0.60;;;0.50;;
1024;SDS011;501;48.214;11.350;2023-04-24T07:45:06;0.87;;;0.50;;
1024;SDS011;501;48.214;11.350;2023-04-24T07:47:32;0.83;;;0.53;;
1024;SDS011;501;48.214;11.350;2023-04-24T07:49:59;0.50;;;0.40;;
1024;SDS011;501;48.214;11.350;2023-04-24T07:52:24;0.67;;;0.60;;
1024;SDS011;501;48.214;11.350;2023-04-24T07:54:50;0.63;;;0.60;;
1024;SDS011;501;48.214;11.350;2023-04-24T07:57:17;0.40;;;0.40;;
1024;SDS011;501;48.214;11.350;2023-04-24T07:59:43;0.40;;;0.40;;
1024;SDS011;501;48.214;11.350;2023-04-24T08:02:09;1.53;;;0.73;;
1024;SDS011;501;48.214;11.350;2023-04-24T08:04:34;0.67;;;0.40;;
1024;SDS011;501;48.214;11.350;2023-04-24T08:07:00;0.53;;;0.50;;
1024;SDS011;501;48.214;11.350;2023-04-24T08:09:26;0.50;;;0.40;;
1024;SDS011;501;48.214;11.350;2023-04-24T08:11:51;0.50;;;0.50;;
1024;SDS011;501;48.214;11.350;2023-04-24T08:14:18;0.80;;;0.80;;
1024;SDS011;501;48.214;11.350;2023-04-24T08:16:43;0.50;;;0.50;;
1024;SDS011;501;48.214;11.350;2023-04-24T08:19:09;0.57;;;0.40;;
1024;SDS011;501;48.214;11.350;2023-04-24T08:21:35;0.73;;;0.73;;
1024;SDS011;501;48.214;11.350;2023-04-24T08:24:00;3.70;;;0.53;;
1024;SDS011;501;48.214;11.350;2023-04-24T08:26:30;0.40;;;0.40;;
1024;SDS011;501;48.214;11.350;2023-04-24T08:28:55;1.30;;;0.50;;
1024;SDS011;501;48.214;11.350;2023-04-24T08:31:21;1.00;;;0.50;;
1024;SDS011;501;48.214;11.350;2023-04-24T08:33:47;1.03;;;0.93;;
1024;SDS011;501;48.214;11.350;2023-04-24T08:36:13;2.43;;;0.77;;
1024;SDS011;501;48.214;11.350;2023-04-24T08:38:39;0.83;;;0.60;;
1024;SDS011;501;48.214;11.350;2023-04-24T08:41:05;1.50;;;1.10;;
1024;SDS011;501;48.214;11.350;2023-04-24T08:43:32;0.77;;;0.77;;
1024;SDS011;501;48.214;11.350;2023-04-24T08:46:01;0.83;;;0.83;;
1024;SDS011;501;48.214;11.350;2023-04-24T08:48:28;1.00;;;0.83;;
1024;SDS011;501;48.214;11.350;2023-04-24T08:50:55;2.60;;;1.30;;
1024;SDS011;501;48.214;11.350;2023-04-24T08:53:22;0.70;;;0.70;;
1024;SDS011;501;48.214;11.350;2023-04-24T08:55:50;1.30;;;0.83;;
1024;SDS011;501;48.214;11.350;2023-04-24T08:58:18;0.60;;;0.60;;
1024;SDS011;501;48.214;11.350;2023-04-24T09:00:44;2.10;;;1.10;;
1024;SDS011;501;48.214;11.350;2023-04-24T09:03:13;2.60;;;0.93;;
1024;SDS011;501;48.214;11.350;2023-04-24T09:05:40;1.70;;;1.30;;
1024;SDS011;501;48.214;11.350;2023-04-24T09:08:10;1.00;;;1.00;;
1024;SDS011;501;48.214;11.350;2023-04-24T09:10:38;1.13;;;1.03;;
1024;SDS011;501;48.214;11.350;2023-04-24T09:13:05;1.20;;;0.93;;
1024;SDS011;501;48.214;11.350;2023-04-24T09:15:34;1.63;;;1.23;;
1024;SDS011;501;48.214;11.350;2023-04-24T09:18:00;1.03;;;1.03;;
1024;SDS011;501;48.214;11.350;2023-04-24T09:20:26;1.77;;;0.90;;
1024;SDS011;501;48.214;11.350;2023-04-24T09:22:56;1.50;;;1.10;;
1024;SDS011;501;48.214;11.350;2023-04-24T09:25:23;2.10;;;1.90;;
1024;SDS011;501;48.214;11.350;2023-04-24T09:27:59;1.10;;;1.00;;
1024;SDS011;501;48.214;11.350;2023-04-24T09:30:27;2.17;;;1.00;;
1024;SDS011;501;48.214;11.350;2023-04-24T09:33:12;1.47;;;1.20;;
1024;SDS011;501;48.214;11.350;2023-04-24T09:35:42;1.33;;;1.23;;
1024;SDS011;501;48.214;11.350;2023-04-24T09:38:16;1.67;;;1.20;;
1024;SDS011;501;48.214;11.350;2023-04-24T09:40:41;2.03;;;1.50;;
1024;SDS011;501;48.214;11.350;2023-04-24T09:43:10;1.80;;;1.70;;
1024;SDS011;501;48.214;11.350;2023-04-24T09:45:36;2.00;;;1.40;;
1024;SDS011;501;48.214;11.350;2023-04-24T09:48:03;1.63;;;1.53;;
1024;SDS011;501;48.214;11.350;2023-04-24T09:50:31;2.13;;;1.53;;
1024;SDS011;501;48.214;11.350;2023-04-24T09:55:24;2.70;;;1.30;;
1024;SDS011;501;48.214;11.350;2023-04-24T09:57:51;2.07;;;1.50;;
1024;SDS011;501;48.214;11.350;2023-04-24T10:00:29;1.73;;;1.60;;
1024;SDS011;501;48.214;11.350;2023-04-24T10:03:00;3.27;;;1.73;;
1024;SDS011;501;48.214;11.350;2023-04-24T10:05:30;1.67;;;1.30;;
1024;SDS011;501;48.214;11.350;2023-04-24T10:08:07;1.10;;;1.10;;
1024;SDS011;501;48.214;11.350;2023-04-24T10:10:39;1.27;;;1.17;;
1024;SDS011;501;48.214;11.350;2023-04-24T10:13:07;1.50;;;1.40;;
1024;SDS011;501;48.214;11.350;2023-04-24T10:15:35;1.60;;;1.50;;
1024;SDS011;501;48.214;11.350;2023-04-24T10:18:01;1.43;;;1.30;;
1024;SDS011;501;48.214;11.350;2023-04-24T10:20:29;1.00;;;1.00;;
1024;SDS011;501;48.214;11.350;2023-04-24T10:22:56;1.00;;;0.90;;
1024;SDS011;501;48.214;11.350;2023-04-24T10:25:24;1.63;;;1.50;;
1024;SDS011;501;48.214;11.350;2023-04-24T10:27:54;1.30;;;1.20;;
1024;SDS011;501;48.214;11.350;2023-04-24T10:30:25;1.23;;;1.13;;
1024;SDS011;501;48.214;11.350;2023-04-24T10:32:52;1.00;;;0.90;;
1024;SDS011;501;48.214;11.350;2023-04-24T10:35:18;1.57;;;1.00;;
1024;SDS011;501;48.214;11.350;2023-04-24T10:37:51;1.90;;;0.87;;
1024;SDS011;501;48.214;11.350;2023-04-24T10:40:26;1.33;;;0.90;;
1024;SDS011;501;48.214;11.350;2023-04-24T10:42:54;0.80;;;0.80;;
1024;SDS011;501;48.214;11.350;2023-04-24T10:45:21;1.23;;;0.80;;
1024;SDS011;501;48.214;11.350;2023-04-24T10:47:58;1.27;;;1.17;;
1024;SDS011;501;48.214;11.350;2023-04-24T10:50:28;0.70;;;0.70;;
1024;SDS011;501;48.214;11.350;2023-04-24T10:53:07;1.07;;;0.90;;
1024;SDS011;501;48.214;11.350;2023-04-24T10:58:09;3.10;;;1.20;;
1024;SDS011;501;48.214;11.350;2023-04-24T11:00:38;2.00;;;1.27;;
1024;SDS011;501;48.214;11.350;2023-04-24T11:03:05;0.80;;;0.80;;
1024;SDS011;501;48.214;11.350;2023-04-24T11:08:23;1.13;;;1.07;;
1024;SDS011;501;48.214;11.350;2023-04-24T11:10:56;3.57;;;1.20;;
1024;SDS011;501;48.214;11.350;2023-04-24T11:14:00;1.20;;;1.10;;
1024;SDS011;501;48.214;11.350;2023-04-24T11:16:20;0.73;;;0.70;;
1024;SDS011;501;48.214;11.350;2023-04-24T11:21:31;0.80;;;0.80;;
1024;SDS011;501;48.214;11.350;2023-04-24T11:29:21;0.97;;;0.70;;
1024;SDS011;501;48.214;11.350;2023-04-24T11:31:47;1.20;;;1.00;;
1024;SDS011;501;48.214;11.350;2023-04-24T11:34:16;1.00;;;0.77;;
1024;SDS011;501;48.214;11.350;2023-04-24T11:36:42;0.73;;;0.70;;
1024;SDS011;501;48.214;11.350;2023-04-24T11:39:09;0.80;;;0.80;;
1024;SDS011;501;48.214;11.350;2023-04-24T11:41:36;0.73;;;0.70;;
1024;SDS011;501;48.214;11.350;2023-04-24T11:44:02;1.70;;;1.10;;
1024;SDS011;501;48.214;11.350;2023-04-24T11:46:30;0.80;;;0.80;;
1024;SDS011;501;48.214;11.350;2023-04-24T11:48:57;0.70;;;0.70;;
1024;SDS011;501;48.214;11.350;2023-04-24T11:51:24;3.03;;;1.17;;
1024;SDS011;501;48.214;11.350;2023-04-24T11:53:51;1.23;;;1.00;;
1024;SDS011;501;48.214;11.350;2023-04-24T11:56:18;0.80;;;0.80;;
1024;SDS011;501;48.214;11.350;2023-04-24T11:58:44;1.40;;;0.90;;
1024;SDS011;501;48.214;11.350;2023-04-24T12:01:11;1.40;;;0.93;;
1024;SDS011;501;48.214;11.350;2023-04-24T12:03:36;1.47;;;1.10;;
1024;SDS011;501;48.214;11.350;2023-04-24T12:06:05;1.73;;;1.10;;
1024;SDS011;501;48.214;11.350;2023-04-24T12:08:32;2.27;;;1.40;;
1024;SDS011;501;48.214;11.350;2023-04-24T12:10:59;1.20;;;1.10;;
1024;SDS011;501;48.214;11.350;2023-04-24T12:13:26;1.67;;;1.50;;
1024;SDS011;501;48.214;11.350;2023-04-24T12:15:52;2.03;;;1.20;;
1024;SDS011;501;48.214;11.350;2023-04-24T12:18:18;1.00;;;1.00;;
1024;SDS011;501;48.214;11.350;2023-04-24T12:20:46;1.07;;;0.97;;
1024;SDS011;501;48.214;11.350;2023-04-24T12:23:12;1.70;;;1.23;;
1024;SDS011;501;48.214;11.350;2023-04-24T12:25:38;1.63;;;1.10;;
1024;SDS011;501;48.214;11.350;2023-04-24T12:30:33;1.57;;;1.00;;
1024;SDS011;501;48.214;11.350;2023-04-24T12:33:01;0.80;;;0.80;;
1024;SDS011;501;48.214;11.350;2023-04-24T12:35:29;2.20;;;1.13;;
1024;SDS011;501;48.214;11.350;2023-04-24T12:38:11;1.67;;;1.30;;
1024;SDS011;501;48.214;11.350;2023-04-24T12:40:38;1.10;;;0.80;;
1024;SDS011;501;48.214;11.350;2023-04-24T12:43:13;0.87;;;0.80;;
1024;SDS011;501;48.214;11.350;2023-04-24T12:45:39;1.63;;;1.07;;
1024;SDS011;501;48.214;11.350;2023-04-24T12:48:04;0.93;;;0.93;;
1024;SDS011;501;48.214;11.350;2023-04-24T12:50:30;1.17;;;1.00;;
1024;SDS011;501;48.214;11.350;2023-04-24T12:52:56;2.20;;;1.43;;
1024;SDS011;501;48.214;11.350;2023-04-24T12:55:21;1.00;;;1.00;;
1024;SDS011;501;48.214;11.350;2023-04-24T12:57:47;1.20;;;1.03;;
1024;SDS011;501;48.214;11.350;2023-04-24T13:00:13;1.10;;;1.00;;
1024;SDS011;501;48.214;11.350;2023-04-24T13:02:39;2.00;;;1.50;;
1024;SDS011;501;48.214;11.350;2023-04-24T13:05:05;2.33;;;1.60;;
1024;SDS011;501;48.214;11.350;2023-04-24T13:07:31;1.47;;;1.27;;
1024;SDS011;501;48.214;11.350;2023-04-24T13:09:56;1.77;;;1.57;;
1024;SDS011;501;48.214;11.350;2023-04-24T13:12:22;1.47;;;1.00;;
1024;SDS011;501;48.214;11.350;2023-04-24T13:14:51;1.90;;;0.90;;
1024;SDS011;501;48.214;11.350;2023-04-24T13:17:17;1.67;;;1.30;;
1024;SDS011;501;48.214;11.350;2023-04-24T13:19:43;1.40;;;1.30;;
1024;SDS011;501;48.214;11.350;2023-04-24T13:22:10;1.40;;;1.13;;
1024;SDS011;501;48.214;11.350;2023-04-24T13:24:36;2.47;;;1.23;;
1024;SDS011;501;48.214;11.350;2023-04-24T13:27:03;1.27;;;1.10;;
1024;SDS011;501;48.214;11.350;2023-04-24T13:29:29;1.27;;;1.10;;
1024;SDS011;501;48.214;11.350;2023-04-24T13:31:54;1.30;;;1.20;;
1024;SDS011;501;48.214;11.350;2023-04-24T13:34:21;1.20;;;1.10;;
1024;SDS011;501;48.214;11.350;2023-04-24T13:36:49;1.57;;;1.47;;
1024;SDS011;501;48.214;11.350;2023-04-24T13:39:16;1.53;;;1.10;;
1024;SDS011;501;48.214;11.350;2023-04-24T13:41:41;2.70;;;1.10;;
1024;SDS011;501;48.214;11.350;2023-04-24T13:44:07;0.90;;;0.90;;
1024;SDS011;501;48.214;11.350;2023-04-24T13:46:33;1.17;;;1.07;;
1024;SDS011;501;48.214;11.350;2023-04-24T13:48:59;2.73;;;1.23;;
1024;SDS011;501;48.214;11.350;2023-04-24T13:51:25;1.90;;;1.70;;
1024;SDS011;501;48.214;11.350;2023-04-24T13:53:54;3.50;;;1.40;;
1024;SDS011;501;48.214;11.350;2023-04-24T13:56:20;1.87;;;1.40;;
1024;SDS011;501;48.214;11.350;2023-04-24T13:58:46;1.30;;;1.20;;
1024;SDS011;501;48.214;11.350;2023-04-24T14:01:12;1.70;;;1.20;;
1024;SDS011;501;48.214;11.350;2023-04-24T14:03:38;1.50;;;1.27;;
1024;SDS011;501;48.214;11.350;2023-04-24T14:06:03;1.43;;;1.13;;
1024;SDS011;501;48.214;11.350;2023-04-24T14:08:29;1.83;;;1.03;;
1024;SDS011;501;48.214;11.350;2023-04-24T14:10:55;2.07;;;1.20;;
1024;SDS011;501;48.214;11.350;2023-04-24T14:13:20;4.63;;;1.53;;
1024;SDS011;501;48.214;11.350;2023-04-24T14:15:46;1.60;;;1.40;;
1024;SDS011;501;48.214;11.350;2023-04-24T14:18:12;1.20;;;1.10;;
1024;SDS011;501;48.214;11.350;2023-04-24T14:20:38;1.43;;;1.33;;
1024;SDS011;501;48.214;11.350;2023-04-24T14:23:03;1.63;;;1.20;;
1024;SDS011;501;48.214;11.350;2023-04-24T14:25:29;1.30;;;1.20;;
1024;SDS011;501;48.214;11.350;2023-04-24T14:27:55;2.00;;;1.30;;
1024;SDS011;501;48.214;11.350;2023-04-24T14:30:21;1.53;;;1.43;;
1024;SDS011;501;48.214;11.350;2023-04-24T14:32:46;1.20;;;1.10;;
1024;SDS011;501;48.214;11.350;2023-04-24T14:35:13;3.23;;;1.40;;
1024;SDS011;501;48.214;11.350;2023-04-24T14:37:39;1.80;;;1.40;;
1024;SDS011;501;48.214;11.350;2023-04-24T14:40:06;1.90;;;1.30;;
1024;SDS011;501;48.214;11.350;2023-04-24T14:42:33;1.23;;;1.10;;
1024;SDS011;501;48.214;11.350;2023-04-24T14:44:59;1.70;;;1.30;;
1024;SDS011;501;48.214;11.350;2023-04-24T14:47:24;2.47;;;1.17;;
1024;SDS011;501;48.214;11.350;2023-04-24T14:49:50;1.50;;;1.40;;
1024;SDS011;501;48.214;11.350;2023-04-24T14:52:16;2.67;;;1.23;;
1024;SDS011;501;48.214;11.350;2023-04-24T14:54:42;2.43;;;1.50;;
1024;SDS011;501;48.214;11.350;2023-04-24T14:57:08;1.13;;;1.03;;
1024;SDS011;501;48.214;11.350;2023-04-24T14:59:34;2.37;;;1.40;;
1024;SDS011;501;48.214;11.350;2023-04-24T15:02:00;2.43;;;1.00;;
1024;SDS011;501;48.214;11.350;2023-04-24T15:04:26;2.40;;;1.10;;
1024;SDS011;501;48.214;11.350;2023-04-24T15:06:53;2.07;;;1.13;;
1024;SDS011;501;48.214;11.350;2023-04-24T15:09:20;4.40;;;1.33;;
1024;SDS011;501;48.214;11.350;2023-04-24T15:11:47;1.80;;;1.20;;
1024;SDS011;501;48.214;11.350;2023-04-24T15:14:14;1.23;;;0.83;;
1024;SDS011;501;48.214;11.350;2023-04-24T15:16:40;2.40;;;1.47;;
1024;SDS011;501;48.214;11.350;2023-04-24T15:19:05;1.33;;;1.20;;
1024;SDS011;501;48.214;11.350;2023-04-24T15:21:31;1.57;;;1.17;;
1024;SDS011;501;48.214;11.350;2023-04-24T15:23:57;2.13;;;1.07;;
1024;SDS011;501;48.214;11.350;2023-04-24T15:26:23;1.27;;;1.00;;
1024;SDS011;501;48.214;11.350;2023-04-24T15:28:50;1.30;;;1.20;;
1024;SDS011;501;48.214;11.350;2023-04-24T15:31:16;1.13;;;0.90;;